Time;durP1;ratioP1;P1;durP2;ratioP2;P2;SDS_P1;SDS_P2;PMS_P1;PMS_P2;Temp;Humidity;BMP_temperature;BMP_pressure;BME280_temperature;BME280_humidity;BME280_pressure;Samples;Min_cycle;Max_cycle;Signal;HPM_P1;HPM_P2
2022/09/03 00:00:11;;;;;;;2.05;1.42;;;;;;;;;;4997677;28;20216;-53
2022/09/03 00:02:46;;;;;;;1.60;1.30;;;;;;;;;;4990438;28;20224;-49
2022/09/03 00:05:25;;;;;;;2.47;1.35;;;;;;;;;;5001456;28;20212;-50
2022/09/03 00:08:02;;;;;;;3.55;1.35;;;;;;;;;;5014050;28;20240;-49
2022/09/03 00:10:42;;;;;;;1.77;1.40;;;;;;;;;;5008469;28;20467;-49
2022/09/03 00:13:15;;;;;;;2.97;1.60;;;;;;;;;;4991492;28;20192;-53
2022/09/03 00:15:42;;;;;;;2.42;1.55;;;;;;;;;;5006656;28;20259;-48
2022/09/03 00:18:14;;;;;;;2.03;1.45;;;;;;;;;;4991338;28;20952;-49
2022/09/03 00:20:44;;;;;;;1.50;1.20;;;;;;;;;;5019432;28;20714;-53
2022/09/03 00:23:15;;;;;;;1.50;1.10;;;;;;;;;;5004927;28;20224;-49
2022/09/03 00:26:01;;;;;;;1.98;1.20;;;;;;;;;;4989754;28;20205;-52
2022/09/03 00:28:34;;;;;;;3.00;1.25;;;;;;;;;;4987869;28;20251;-52
2022/09/03 00:31:17;;;;;;;1.63;1.20;;;;;;;;;;5005924;28;20228;-53
2022/09/03 00:33:45;;;;;;;1.40;1.30;;;;;;;;;;5005593;28;20711;-51
2022/09/03 00:36:22;;;;;;;3.55;1.60;;;;;;;;;;4990170;28;20217;-56
2022/09/03 00:38:49;;;;;;;1.73;1.60;;;;;;;;;;5006127;28;20208;-48
2022/09/03 00:41:30;;;;;;;1.73;1.13;;;;;;;;;;4993458;28;20228;-47
2022/09/03 00:44:14;;;;;;;1.50;1.20;;;;;;;;;;4988414;28;20204;-51
2022/09/03 00:46:50;;;;;;;3.10;1.15;;;;;;;;;;4992696;28;20227;-54
2022/09/03 00:49:42;;;;;;;2.03;1.42;;;;;;;;;;5007113;28;20208;-53
2022/09/03 00:52:30;;;;;;;2.47;1.25;;;;;;;;;;4989763;28;20274;-52
2022/09/03 00:55:25;;;;;;;2.78;1.23;;;;;;;;;;4991491;28;20279;-51
2022/09/03 00:58:19;;;;;;;1.63;1.20;;;;;;;;;;4988491;28;20224;-51
2022/09/03 01:00:46;;;;;;;1.52;1.20;;;;;;;;;;4990649;28;20263;-50
2022/09/03 01:03:24;;;;;;;1.20;1.10;;;;;;;;;;4989490;28;20693;-51
2022/09/03 01:06:10;;;;;;;3.08;1.67;;;;;;;;;;5003614;28;20204;-52
2022/09/03 01:08:52;;;;;;;1.42;1.27;;;;;;;;;;4988156;28;20196;-51
2022/09/03 01:11:34;;;;;;;1.50;1.10;;;;;;;;;;4991883;28;20243;-50
2022/09/03 01:14:11;;;;;;;1.30;1.20;;;;;;;;;;4990585;28;20197;-52
2022/09/03 01:20:12;;;;;;;2.28;1.10;;;;;;;;;;4982364;23;20225;-47
2022/09/03 01:22:56;;;;;;;2.08;1.10;;;;;;;;;;4947582;28;20226;-47
2022/09/03 01:25:42;;;;;;;2.15;1.10;;;;;;;;;;4989531;28;20197;-48
2022/09/03 01:28:15;;;;;;;1.10;1.00;;;;;;;;;;4988010;28;20224;-51
2022/09/03 01:30:47;;;;;;;1.65;1.20;;;;;;;;;;4987498;28;20201;-47
2022/09/03 01:33:24;;;;;;;1.83;1.23;;;;;;;;;;4988143;28;20639;-52
2022/09/03 01:36:15;;;;;;;1.30;1.00;;;;;;;;;;4986122;28;20209;-47
2022/09/03 01:38:46;;;;;;;3.10;1.30;;;;;;;;;;4984598;28;20225;-53
2022/09/03 01:44:39;;;;;;;1.20;1.10;;;;;;;;;;4996292;28;20259;-51
2022/09/03 01:47:10;;;;;;;2.45;1.10;;;;;;;;;;4982189;28;20255;-47
2022/09/03 01:50:00;;;;;;;1.17;1.08;;;;;;;;;;4984330;28;20297;-51
2022/09/03 01:52:47;;;;;;;2.00;1.20;;;;;;;;;;4985655;28;20252;-51
2022/09/03 01:55:18;;;;;;;1.80;1.10;;;;;;;;;;4984644;28;20605;-53
2022/09/03 01:57:55;;;;;;;1.23;1.13;;;;;;;;;;4984816;28;20645;-49
2022/09/03 02:00:22;;;;;;;1.58;1.20;;;;;;;;;;4986912;28;20196;-48
2022/09/03 02:02:50;;;;;;;4.10;1.40;;;;;;;;;;4985075;28;20224;-48
2022/09/03 02:05:25;;;;;;;1.10;1.00;;;;;;;;;;4988841;28;20683;-49
2022/09/03 02:08:00;;;;;;;1.30;1.20;;;;;;;;;;4987781;28;20224;-48
2022/09/03 02:10:50;;;;;;;1.45;0.95;;;;;;;;;;4989492;28;20204;-46
2022/09/03 02:13:29;;;;;;;1.40;1.20;;;;;;;;;;4984989;28;20634;-47
2022/09/03 02:15:59;;;;;;;1.17;1.08;;;;;;;;;;4980258;28;20918;-50
2022/09/03 02:18:29;;;;;;;1.20;1.10;;;;;;;;;;4982810;28;20279;-47
2022/09/03 02:20:56;;;;;;;3.58;1.30;;;;;;;;;;4988069;28;20243;-47
2022/09/03 02:23:23;;;;;;;1.02;1.02;;;;;;;;;;5002722;28;20641;-47
2022/09/03 02:25:59;;;;;;;1.40;1.02;;;;;;;;;;4997585;28;20197;-47
2022/09/03 02:28:27;;;;;;;1.58;1.10;;;;;;;;;;4988221;28;20220;-50
2022/09/03 02:30:54;;;;;;;1.55;1.23;;;;;;;;;;4988137;28;20197;-51
2022/09/03 02:33:20;;;;;;;0.90;0.90;;;;;;;;;;4985578;28;20204;-51
2022/09/03 02:35:47;;;;;;;1.38;1.17;;;;;;;;;;4987862;28;20259;-49
2022/09/03 02:38:24;;;;;;;1.30;1.05;;;;;;;;;;4980968;28;20645;-49
2022/09/03 02:40:53;;;;;;;2.88;1.13;;;;;;;;;;4987478;28;20695;-47
2022/09/03 02:43:25;;;;;;;1.33;1.13;;;;;;;;;;4987665;28;20217;-47
2022/09/03 02:45:54;;;;;;;1.30;1.20;;;;;;;;;;4986082;28;20205;-47
2022/09/03 02:48:23;;;;;;;1.27;1.17;;;;;;;;;;4968052;28;20216;-50
2022/09/03 02:50:49;;;;;;;1.23;1.10;;;;;;;;;;4981630;28;20222;-48
2022/09/03 02:53:16;;;;;;;2.38;1.17;;;;;;;;;;4988564;28;20195;-46
2022/09/03 02:55:42;;;;;;;1.20;1.05;;;;;;;;;;4987392;28;20251;-49
2022/09/03 02:58:09;;;;;;;1.13;1.02;;;;;;;;;;4987871;28;20227;-47
2022/09/03 03:00:36;;;;;;;1.02;0.90;;;;;;;;;;4988634;28;20571;-47
2022/09/03 03:03:03;;;;;;;1.33;1.10;;;;;;;;;;4985558;28;20228;-47
2022/09/03 03:05:49;;;;;;;1.50;1.17;;;;;;;;;;5002997;28;20208;-46
2022/09/03 03:08:20;;;;;;;1.95;1.10;;;;;;;;;;4988258;28;20239;-47
2022/09/03 03:10:48;;;;;;;1.52;1.25;;;;;;;;;;4987116;28;20208;-52
2022/09/03 03:13:15;;;;;;;1.23;1.13;;;;;;;;;;4985244;28;20224;-51
2022/09/03 03:15:42;;;;;;;1.20;1.10;;;;;;;;;;4983960;28;20201;-47
2022/09/03 03:18:10;;;;;;;1.40;1.30;;;;;;;;;;4982910;28;20216;-48
2022/09/03 03:20:37;;;;;;;1.17;1.08;;;;;;;;;;4984050;28;20649;-51
2022/09/03 03:23:05;;;;;;;1.20;0.90;;;;;;;;;;4988151;28;20272;-48
2022/09/03 03:25:32;;;;;;;2.85;1.40;;;;;;;;;;4987645;28;20201;-50
2022/09/03 03:27:59;;;;;;;1.88;1.10;;;;;;;;;;4988689;28;20232;-51
2022/09/03 03:30:26;;;;;;;1.23;1.02;;;;;;;;;;4984881;28;20758;-53
2022/09/03 03:32:53;;;;;;;2.55;1.20;;;;;;;;;;4989189;28;20201;-48
2022/09/03 03:35:19;;;;;;;1.30;1.10;;;;;;;;;;4987776;28;20196;-49
2022/09/03 03:37:46;;;;;;;2.83;1.20;;;;;;;;;;4986133;28;20703;-49
2022/09/03 03:40:13;;;;;;;1.20;1.10;;;;;;;;;;4986261;28;20204;-48
2022/09/03 03:42:41;;;;;;;1.60;1.00;;;;;;;;;;4988062;28;20364;-53
2022/09/03 03:45:08;;;;;;;3.20;1.25;;;;;;;;;;4987151;28;20204;-48
2022/09/03 03:47:36;;;;;;;1.30;1.10;;;;;;;;;;4983024;28;20275;-45
2022/09/03 03:50:03;;;;;;;1.42;1.02;;;;;;;;;;4985399;28;20205;-54
2022/09/03 03:52:29;;;;;;;2.35;1.20;;;;;;;;;;4988369;28;20255;-52
2022/09/03 03:54:56;;;;;;;1.48;1.10;;;;;;;;;;4983849;28;20700;-51
2022/09/03 03:57:22;;;;;;;1.92;1.20;;;;;;;;;;4983574;28;20220;-54
2022/09/03 03:59:49;;;;;;;1.27;1.17;;;;;;;;;;4988756;28;20727;-52
2022/09/03 04:02:16;;;;;;;1.33;1.23;;;;;;;;;;4987797;28;20689;-51
2022/09/03 04:04:43;;;;;;;1.42;1.27;;;;;;;;;;4987549;28;20255;-53
2022/09/03 04:07:09;;;;;;;1.10;1.00;;;;;;;;;;4987043;28;20205;-52
2022/09/03 04:09:36;;;;;;;1.13;1.02;;;;;;;;;;4985878;28;20194;-52
2022/09/03 04:12:07;;;;;;;1.40;1.10;;;;;;;;;;4988806;28;20204;-50
2022/09/03 04:14:34;;;;;;;1.27;1.17;;;;;;;;;;4990794;28;20201;-48
2022/09/03 04:17:01;;;;;;;1.55;1.20;;;;;;;;;;4982857;28;20208;-53
2022/09/03 04:19:31;;;;;;;2.17;1.35;;;;;;;;;;4989557;28;20236;-53
2022/09/03 04:21:57;;;;;;;1.35;1.20;;;;;;;;;;4990805;28;20271;-47
2022/09/03 04:24:24;;;;;;;1.65;1.13;;;;;;;;;;4982787;28;20212;-47
2022/09/03 04:26:50;;;;;;;1.65;1.00;;;;;;;;;;4990776;28;20642;-48
2022/09/03 04:29:17;;;;;;;1.20;1.10;;;;;;;;;;4991450;28;20205;-53
2022/09/03 04:32:51;;;;;;;1.40;1.23;;;;;;;;;;4988586;28;20739;-51
2022/09/03 04:34:30;;;;;;;2.75;1.10;;;;;;;;;;4991103;28;20197;-52
2022/09/03 04:36:57;;;;;;;1.85;1.40;;;;;;;;;;4991051;28;20228;-50
2022/09/03 04:39:24;;;;;;;1.65;1.30;;;;;;;;;;4988770;28;20197;-49
2022/09/03 04:41:51;;;;;;;2.80;1.13;;;;;;;;;;4986749;28;20739;-47
2022/09/03 04:44:17;;;;;;;2.75;1.30;;;;;;;;;;4990809;28;20437;-49
2022/09/03 04:46:46;;;;;;;2.90;1.23;;;;;;;;;;4989361;28;20205;-52
2022/09/03 04:49:13;;;;;;;2.88;1.40;;;;;;;;;;4991315;28;20284;-47
2022/09/03 04:51:39;;;;;;;1.65;1.10;;;;;;;;;;4990803;28;20617;-51
2022/09/03 04:54:06;;;;;;;1.02;1.00;;;;;;;;;;4987811;28;20638;-52
2022/09/03 04:56:33;;;;;;;1.50;1.23;;;;;;;;;;4985495;28;20247;-53
2022/09/03 04:59:03;;;;;;;3.28;1.00;;;;;;;;;;4986952;28;20787;-52
2022/09/03 05:01:31;;;;;;;1.20;1.10;;;;;;;;;;4989794;28;20267;-50
2022/09/03 05:03:58;;;;;;;1.30;1.17;;;;;;;;;;4990413;28;20221;-49
2022/09/03 05:06:26;;;;;;;1.20;1.10;;;;;;;;;;4991550;28;20205;-51
2022/09/03 05:08:53;;;;;;;1.67;1.20;;;;;;;;;;4989490;28;20669;-50
2022/09/03 05:11:20;;;;;;;1.90;1.15;;;;;;;;;;5003823;28;20201;-47
2022/09/03 05:13:47;;;;;;;3.17;1.15;;;;;;;;;;4987207;28;20271;-52
2022/09/03 05:16:14;;;;;;;2.78;1.17;;;;;;;;;;4987416;28;20201;-48
2022/09/03 05:18:41;;;;;;;1.92;1.20;;;;;;;;;;4982568;28;20512;-50
2022/09/03 05:21:10;;;;;;;5.22;1.20;;;;;;;;;;4990452;28;20665;-49
2022/09/03 05:23:38;;;;;;;1.50;1.27;;;;;;;;;;4986847;28;20216;-49
2022/09/03 05:26:08;;;;;;;2.80;1.13;;;;;;;;;;4957401;28;20221;-48
2022/09/03 05:28:38;;;;;;;1.70;1.20;;;;;;;;;;4987001;28;20851;-50
2022/09/03 05:31:09;;;;;;;0.98;0.93;;;;;;;;;;4989270;28;20197;-46
2022/09/03 05:33:38;;;;;;;4.20;1.27;;;;;;;;;;4989660;28;20311;-52
2022/09/03 05:36:07;;;;;;;1.55;1.23;;;;;;;;;;4980869;28;20196;-50
2022/09/03 05:38:34;;;;;;;2.00;1.20;;;;;;;;;;4988881;28;20213;-48
2022/09/03 05:41:05;;;;;;;3.55;1.20;;;;;;;;;;4988230;28;20201;-47
2022/09/03 05:43:33;;;;;;;1.92;1.30;;;;;;;;;;4986837;28;20272;-46
2022/09/03 05:46:08;;;;;;;1.73;1.30;;;;;;;;;;4989448;28;20193;-51
2022/09/03 05:48:36;;;;;;;1.60;1.30;;;;;;;;;;4990332;28;20307;-47
2022/09/03 05:51:07;;;;;;;1.42;1.17;;;;;;;;;;4988350;28;20738;-46
2022/09/03 05:53:36;;;;;;;1.60;1.30;;;;;;;;;;4987723;28;20197;-52
2022/09/03 05:56:09;;;;;;;4.28;1.48;;;;;;;;;;4986971;28;20251;-48
2022/09/03 05:58:43;;;;;;;2.55;1.30;;;;;;;;;;4987643;28;20235;-51
2022/09/03 06:01:17;;;;;;;5.13;1.35;;;;;;;;;;4988948;28;20723;-47
2022/09/03 06:03:45;;;;;;;4.55;1.30;;;;;;;;;;4989917;28;20220;-52
2022/09/03 06:06:12;;;;;;;1.85;1.40;;;;;;;;;;4988077;28;20200;-53
2022/09/03 06:08:40;;;;;;;3.30;1.40;;;;;;;;;;4989017;28;20225;-48
2022/09/03 06:11:07;;;;;;;1.30;1.17;;;;;;;;;;4988929;28;20201;-50
2022/09/03 06:13:34;;;;;;;3.55;1.40;;;;;;;;;;4984921;28;20567;-48
2022/09/03 06:16:03;;;;;;;3.00;1.40;;;;;;;;;;4984031;28;20201;-54
2022/09/03 06:18:30;;;;;;;3.38;1.50;;;;;;;;;;4987934;28;20221;-48
2022/09/03 06:21:02;;;;;;;2.83;1.27;;;;;;;;;;4990013;28;20193;-52
2022/09/03 06:23:29;;;;;;;2.58;1.40;;;;;;;;;;4985908;28;20213;-55
2022/09/03 06:26:05;;;;;;;3.22;1.40;;;;;;;;;;4986584;28;20208;-50
2022/09/03 06:28:37;;;;;;;3.25;1.35;;;;;;;;;;4987217;28;20239;-50
2022/09/03 06:31:05;;;;;;;3.35;1.60;;;;;;;;;;4989139;28;20197;-51
2022/09/03 06:33:34;;;;;;;2.72;1.52;;;;;;;;;;4983865;28;20259;-48
2022/09/03 06:36:02;;;;;;;5.03;1.95;;;;;;;;;;4983460;28;20263;-46
2022/09/03 06:38:36;;;;;;;3.13;1.45;;;;;;;;;;4986040;28;20217;-52
2022/09/03 06:41:09;;;;;;;2.15;1.60;;;;;;;;;;4989044;28;20200;-48
2022/09/03 06:43:37;;;;;;;2.35;1.70;;;;;;;;;;4987885;28;20300;-55
2022/09/03 06:46:05;;;;;;;3.95;1.60;;;;;;;;;;4988233;28;20548;-48
2022/09/03 06:48:33;;;;;;;3.65;1.60;;;;;;;;;;4985556;28;20303;-48
2022/09/03 06:51:02;;;;;;;2.10;1.70;;;;;;;;;;4989368;28;20204;-48
2022/09/03 06:53:31;;;;;;;3.33;1.67;;;;;;;;;;4988036;28;20599;-53
2022/09/03 06:56:00;;;;;;;2.42;1.63;;;;;;;;;;4987397;28;20201;-51
2022/09/03 06:58:31;;;;;;;3.90;1.63;;;;;;;;;;4988776;28;20221;-51
2022/09/03 07:01:21;;;;;;;4.80;1.73;;;;;;;;;;4986820;28;20204;-52
2022/09/03 07:03:54;;;;;;;3.03;1.60;;;;;;;;;;4979325;28;20236;-48
2022/09/03 07:06:22;;;;;;;3.75;1.50;;;;;;;;;;4987025;28;20197;-50
2022/09/03 07:08:48;;;;;;;3.00;1.55;;;;;;;;;;4981010;28;20227;-49
2022/09/03 07:11:18;;;;;;;2.60;1.58;;;;;;;;;;4983397;28;20201;-51
2022/09/03 07:13:46;;;;;;;3.20;1.55;;;;;;;;;;4987587;28;20723;-49
2022/09/03 07:16:15;;;;;;;5.05;1.70;;;;;;;;;;4988216;28;20251;-48
2022/09/03 07:18:42;;;;;;;2.55;1.42;;;;;;;;;;4981656;28;20229;-51
2022/09/03 07:21:11;;;;;;;2.70;1.80;;;;;;;;;;4987934;28;20204;-47
2022/09/03 07:23:38;;;;;;;2.88;1.80;;;;;;;;;;4981926;28;20465;-51
2022/09/03 07:26:15;;;;;;;1.85;1.42;;;;;;;;;;4988791;28;20255;-52
2022/09/03 07:28:44;;;;;;;2.55;1.60;;;;;;;;;;4988542;28;20274;-48
2022/09/03 07:31:24;;;;;;;1.73;1.60;;;;;;;;;;4988615;28;20197;-49
2022/09/03 07:33:58;;;;;;;2.63;1.80;;;;;;;;;;4986180;28;20315;-50
2022/09/03 07:36:26;;;;;;;2.95;1.58;;;;;;;;;;4987314;28;20196;-51
2022/09/03 07:38:57;;;;;;;2.30;1.40;;;;;;;;;;4986307;28;20225;-54
2022/09/03 07:41:25;;;;;;;3.25;1.88;;;;;;;;;;4987653;28;20204;-47
2022/09/03 07:43:54;;;;;;;1.77;1.60;;;;;;;;;;4992335;28;20613;-48
2022/09/03 07:46:23;;;;;;;3.33;1.88;;;;;;;;;;4991011;28;20200;-50
2022/09/03 07:48:55;;;;;;;2.63;1.65;;;;;;;;;;4991443;28;20312;-49
2022/09/03 07:51:25;;;;;;;3.10;1.80;;;;;;;;;;4986821;28;20223;-51
2022/09/03 07:53:53;;;;;;;2.83;1.80;;;;;;;;;;4990092;28;20201;-51
2022/09/03 07:56:20;;;;;;;2.10;1.73;;;;;;;;;;4991750;28;20205;-51
2022/09/03 07:58:47;;;;;;;3.47;1.65;;;;;;;;;;4991681;28;20220;-46
2022/09/03 08:01:19;;;;;;;2.40;2.03;;;;;;;;;;4987660;28;20268;-50
2022/09/03 08:03:50;;;;;;;4.43;2.30;;;;;;;;;;4990033;28;20228;-46
2022/09/03 08:06:18;;;;;;;2.72;2.00;;;;;;;;;;4988846;28;20211;-47
2022/09/03 08:08:45;;;;;;;4.10;1.98;;;;;;;;;;4990335;28;20225;-49
2022/09/03 08:11:14;;;;;;;3.17;2.22;;;;;;;;;;4992120;28;20204;-48
2022/09/03 08:13:47;;;;;;;3.05;2.30;;;;;;;;;;4992698;28;20243;-47
2022/09/03 08:16:17;;;;;;;4.13;2.55;;;;;;;;;;4987446;28;20244;-47
2022/09/03 08:18:44;;;;;;;3.50;2.15;;;;;;;;;;4987135;28;20716;-48
2022/09/03 08:21:14;;;;;;;3.33;2.47;;;;;;;;;;4989694;28;20786;-48
2022/09/03 08:23:42;;;;;;;5.80;2.50;;;;;;;;;;4988972;28;20232;-49
2022/09/03 08:26:09;;;;;;;2.35;2.10;;;;;;;;;;4988891;28;20205;-48
2022/09/03 08:28:36;;;;;;;4.90;2.17;;;;;;;;;;4991689;28;20247;-53
2022/09/03 08:31:08;;;;;;;3.55;1.80;;;;;;;;;;4990094;28;20252;-49
2022/09/03 08:33:38;;;;;;;3.03;2.28;;;;;;;;;;4991211;28;20259;-48
2022/09/03 08:36:16;;;;;;;3.35;2.45;;;;;;;;;;4986468;28;20201;-51
2022/09/03 08:38:45;;;;;;;4.05;2.40;;;;;;;;;;4991369;28;20224;-50
2022/09/03 08:41:15;;;;;;;4.63;2.50;;;;;;;;;;4989393;28;20196;-49
2022/09/03 08:43:57;;;;;;;3.70;2.38;;;;;;;;;;4985716;28;20221;-47
2022/09/03 08:47:00;;;;;;;3.45;2.28;;;;;;;;;;4945875;28;20224;-52
2022/09/03 08:49:34;;;;;;;2.80;2.22;;;;;;;;;;4974857;28;20201;-50
2022/09/03 08:52:06;;;;;;;4.07;2.13;;;;;;;;;;4987619;28;20271;-48
2022/09/03 08:54:34;;;;;;;3.58;2.30;;;;;;;;;;4985849;28;20592;-49
2022/09/03 08:57:02;;;;;;;4.38;2.10;;;;;;;;;;4985892;28;20200;-49
2022/09/03 08:59:31;;;;;;;2.92;2.10;;;;;;;;;;4989664;28;20621;-49
2022/09/03 09:02:12;;;;;;;3.47;2.20;;;;;;;;;;4990661;28;20196;-49
2022/09/03 09:05:03;;;;;;;2.30;1.98;;;;;;;;;;4987794;28;20227;-49
2022/09/03 09:08:02;;;;;;;2.45;2.17;;;;;;;;;;4988387;28;20213;-50
2022/09/03 09:10:54;;;;;;;3.15;2.00;;;;;;;;;;4990567;28;20196;-51
2022/09/03 09:13:31;;;;;;;3.50;1.90;;;;;;;;;;4989241;28;20703;-52
2022/09/03 09:16:16;;;;;;;3.00;1.92;;;;;;;;;;4993460;28;20197;-50
2022/09/03 09:19:00;;;;;;;1.83;1.63;;;;;;;;;;4990227;28;20453;-53
2022/09/03 09:21:29;;;;;;;2.00;1.73;;;;;;;;;;4986743;28;20208;-52
2022/09/03 09:25:21;;;;;;;4.15;2.53;;;;;;;;;;5085974;28;20505;-54
2022/09/03 09:28:19;;;;;;;2.75;1.95;;;;;;;;;;5074365;28;20233;-55
2022/09/03 09:30:48;;;;;;;3.40;2.00;;;;;;;;;;5062174;28;20496;-52
2022/09/03 09:33:15;;;;;;;4.50;2.13;;;;;;;;;;5052825;28;20248;-51
2022/09/03 09:35:44;;;;;;;2.30;2.10;;;;;;;;;;5064158;28;20198;-51
2022/09/03 09:38:11;;;;;;;3.20;2.10;;;;;;;;;;5065025;28;20214;-52
2022/09/03 09:40:43;;;;;;;2.58;2.10;;;;;;;;;;5061740;28;20206;-52
2022/09/03 09:43:20;;;;;;;2.17;1.88;;;;;;;;;;5061451;28;20194;-55
2022/09/03 09:45:52;;;;;;;3.97;1.80;;;;;;;;;;5056267;28;20225;-52
2022/09/03 09:48:25;;;;;;;2.70;2.10;;;;;;;;;;5055836;28;20218;-52
2022/09/03 09:51:11;;;;;;;3.63;2.13;;;;;;;;;;5062692;28;20198;-55
2022/09/03 09:53:39;;;;;;;5.22;2.15;;;;;;;;;;5056534;28;20206;-51
2022/09/03 09:56:06;;;;;;;3.50;2.35;;;;;;;;;;5061272;28;20214;-55
2022/09/03 09:58:33;;;;;;;2.60;2.08;;;;;;;;;;5053113;28;20222;-54
2022/09/03 10:01:13;;;;;;;2.08;1.80;;;;;;;;;;5057126;28;20206;-51
2022/09/03 10:03:48;;;;;;;2.67;1.90;;;;;;;;;;5058672;28;20556;-53
2022/09/03 10:09:08;;;;;;;2.15;1.90;;;;;;;;;;5063314;28;20652;-53
2022/09/03 10:11:39;;;;;;;2.80;2.17;;;;;;;;;;5055429;28;20636;-53
2022/09/03 10:14:11;;;;;;;2.92;2.20;;;;;;;;;;5061720;28;20198;-48
2022/09/03 10:16:47;;;;;;;3.92;2.40;;;;;;;;;;5053504;28;20217;-53
2022/09/03 10:19:19;;;;;;;3.10;1.70;;;;;;;;;;5055248;28;20215;-50
2022/09/03 10:21:53;;;;;;;3.00;2.38;;;;;;;;;;5044600;28;20194;-52
2022/09/03 10:24:40;;;;;;;3.17;2.50;;;;;;;;;;5061886;28;20215;-54
2022/09/03 10:27:11;;;;;;;3.97;2.88;;;;;;;;;;5065178;28;20672;-53
2022/09/03 10:29:39;;;;;;;5.75;3.30;;;;;;;;;;5057037;28;20203;-50
2022/09/03 10:32:32;;;;;;;5.45;3.00;;;;;;;;;;5059558;28;20635;-52
2022/09/03 10:35:11;;;;;;;4.35;3.00;;;;;;;;;;5054349;28;20195;-54
2022/09/03 10:37:46;;;;;;;4.15;3.00;;;;;;;;;;5039056;28;20250;-54
2022/09/03 10:40:30;;;;;;;5.85;2.30;;;;;;;;;;5054069;28;20677;-55
2022/09/03 10:43:31;;;;;;;3.30;2.78;;;;;;;;;;5040595;28;20210;-55
2022/09/03 10:46:12;;;;;;;3.33;2.85;;;;;;;;;;5037799;28;20555;-55
2022/09/03 10:48:57;;;;;;;3.10;2.80;;;;;;;;;;5059599;28;20711;-55
2022/09/03 10:51:39;;;;;;;5.28;3.05;;;;;;;;;;5044405;28;20195;-54
2022/09/03 10:54:24;;;;;;;4.95;2.67;;;;;;;;;;5056542;28;20202;-53
2022/09/03 10:56:51;;;;;;;3.67;2.60;;;;;;;;;;5048704;28;20195;-55
2022/09/03 10:59:46;;;;;;;3.90;2.80;;;;;;;;;;5046325;28;20705;-55
2022/09/03 11:02:20;;;;;;;4.82;2.67;;;;;;;;;;5034865;28;20203;-55
2022/09/03 11:05:15;;;;;;;4.45;3.10;;;;;;;;;;5045266;28;20264;-53
2022/09/03 11:08:19;;;;;;;5.05;3.10;;;;;;;;;;5039783;28;20214;-54
2022/09/03 11:10:55;;;;;;;4.50;3.30;;;;;;;;;;5041723;28;20195;-52
2022/09/03 11:13:46;;;;;;;3.58;2.45;;;;;;;;;;5043313;28;20256;-53
2022/09/03 11:16:18;;;;;;;4.63;2.80;;;;;;;;;;5041987;28;20342;-52
2022/09/03 11:18:51;;;;;;;5.50;3.10;;;;;;;;;;5037859;28;20218;-53
2022/09/03 11:21:22;;;;;;;4.15;3.00;;;;;;;;;;5040063;28;20673;-51
2022/09/03 11:23:59;;;;;;;4.38;2.75;;;;;;;;;;5060761;28;20222;-53
2022/09/03 11:26:26;;;;;;;9.18;3.30;;;;;;;;;;5054811;28;20202;-53
2022/09/03 11:28:57;;;;;;;4.65;2.90;;;;;;;;;;5041521;28;20210;-52
2022/09/03 11:31:46;;;;;;;3.60;2.88;;;;;;;;;;5047804;28;20238;-48
2022/09/03 11:34:29;;;;;;;4.68;3.13;;;;;;;;;;5044117;28;20195;-51
2022/09/03 11:37:18;;;;;;;7.10;2.80;;;;;;;;;;5040405;28;20279;-53
2022/09/03 11:39:52;;;;;;;4.80;3.20;;;;;;;;;;5045649;28;20202;-52
2022/09/03 11:42:30;;;;;;;4.25;3.08;;;;;;;;;;5047585;28;20199;-48
2022/09/03 11:45:14;;;;;;;4.30;2.50;;;;;;;;;;5040431;28;20219;-52
2022/09/03 11:47:43;;;;;;;2.47;2.20;;;;;;;;;;5044668;28;20211;-52
2022/09/03 11:50:23;;;;;;;3.65;2.53;;;;;;;;;;5043159;28;20191;-50
2022/09/03 11:52:52;;;;;;;3.60;2.80;;;;;;;;;;5047244;28;20277;-49
2022/09/03 11:55:29;;;;;;;3.33;2.60;;;;;;;;;;5044731;28;20209;-48
2022/09/03 11:58:23;;;;;;;5.53;2.67;;;;;;;;;;5044387;28;20214;-53
2022/09/03 12:00:53;;;;;;;3.55;2.90;;;;;;;;;;5048304;28;20195;-52
2022/09/03 12:03:43;;;;;;;4.25;2.38;;;;;;;;;;5040518;28;20203;-51
2022/09/03 12:06:26;;;;;;;4.70;2.50;;;;;;;;;;5041724;28;20206;-51
2022/09/03 12:09:13;;;;;;;3.92;2.75;;;;;;;;;;5036782;28;20631;-51
2022/09/03 12:11:45;;;;;;;3.38;2.10;;;;;;;;;;5047681;28;20500;-53
2022/09/03 12:14:47;;;;;;;2.85;2.30;;;;;;;;;;5040133;28;20737;-54
2022/09/03 12:17:39;;;;;;;3.40;2.60;;;;;;;;;;5032334;28;20231;-50
2022/09/03 12:20:13;;;;;;;5.07;2.80;;;;;;;;;;5030924;28;20352;-53
2022/09/03 12:22:40;;;;;;;3.03;2.30;;;;;;;;;;5039178;28;20271;-51
2022/09/03 12:25:14;;;;;;;3.60;2.60;;;;;;;;;;5043140;28;20301;-52
2022/09/03 12:27:43;;;;;;;2.60;2.30;;;;;;;;;;5041069;28;20234;-52
2022/09/03 12:30:18;;;;;;;3.22;2.40;;;;;;;;;;5057550;28;20202;-52
2022/09/03 12:32:46;;;;;;;4.43;2.25;;;;;;;;;;5042905;28;20206;-49
2022/09/03 12:35:14;;;;;;;3.47;2.45;;;;;;;;;;5045835;28;20190;-49
2022/09/03 12:38:00;;;;;;;3.63;2.47;;;;;;;;;;5041575;28;20248;-52
2022/09/03 12:40:34;;;;;;;3.22;2.30;;;;;;;;;;5040936;28;20264;-51
2022/09/03 12:43:26;;;;;;;2.80;2.50;;;;;;;;;;5044285;28;20264;-54
2022/09/03 12:46:14;;;;;;;2.90;2.40;;;;;;;;;;5043643;28;20251;-52
2022/09/03 12:49:04;;;;;;;2.83;2.25;;;;;;;;;;5043647;28;20215;-52
2022/09/03 12:51:50;;;;;;;2.88;2.35;;;;;;;;;;5041345;28;20230;-52
2022/09/03 12:54:22;;;;;;;2.28;2.08;;;;;;;;;;5040283;28;20196;-52
2022/09/03 12:56:54;;;;;;;2.45;2.00;;;;;;;;;;5042147;28;20228;-52
2022/09/03 12:59:21;;;;;;;2.20;2.00;;;;;;;;;;5043195;28;20835;-52
2022/09/03 13:01:51;;;;;;;2.30;2.00;;;;;;;;;;5051836;28;20742;-49
2022/09/03 13:04:22;;;;;;;2.63;2.00;;;;;;;;;;5044797;28;20258;-52
2022/09/03 13:07:02;;;;;;;2.17;1.95;;;;;;;;;;5040898;28;20627;-53
2022/09/03 13:09:29;;;;;;;2.00;1.80;;;;;;;;;;5045676;28;20199;-51
2022/09/03 13:11:58;;;;;;;2.25;2.00;;;;;;;;;;5046850;28;20620;-55
2022/09/03 13:14:25;;;;;;;4.90;2.00;;;;;;;;;;5037617;28;20199;-54
2022/09/03 13:17:05;;;;;;;3.47;2.15;;;;;;;;;;5039670;28;20207;-53
2022/09/03 13:19:38;;;;;;;5.28;2.20;;;;;;;;;;5041625;28;20203;-53
2022/09/03 13:22:26;;;;;;;2.28;1.80;;;;;;;;;;5040216;28;20200;-56
2022/09/03 13:25:23;;;;;;;2.03;1.70;;;;;;;;;;5041853;28;20322;-53
2022/09/03 13:28:15;;;;;;;2.28;1.95;;;;;;;;;;5040679;28;20224;-53
2022/09/03 13:31:02;;;;;;;1.95;1.73;;;;;;;;;;5043679;28;20190;-52
2022/09/03 13:33:49;;;;;;;3.38;1.77;;;;;;;;;;5038853;28;20655;-53
2022/09/03 13:36:23;;;;;;;2.10;1.90;;;;;;;;;;5044082;28;20191;-49
2022/09/03 13:38:49;;;;;;;2.28;2.08;;;;;;;;;;5041919;28;20562;-52
2022/09/03 13:41:23;;;;;;;3.63;1.77;;;;;;;;;;5039526;28;20653;-52
2022/09/03 13:44:21;;;;;;;2.40;1.80;;;;;;;;;;5038423;28;20195;-51
2022/09/03 13:46:55;;;;;;;5.50;2.17;;;;;;;;;;5019738;28;20685;-55
2022/09/03 13:52:46;;;;;;;3.47;2.00;;;;;;;;;;5041038;28;20249;-55
2022/09/03 13:55:18;;;;;;;2.65;2.10;;;;;;;;;;5040825;28;20202;-53
2022/09/03 13:57:58;;;;;;;3.63;2.15;;;;;;;;;;5037294;28;20211;-53
2022/09/03 14:00:31;;;;;;;3.30;2.13;;;;;;;;;;5037334;28;20200;-54
2022/09/03 14:03:12;;;;;;;2.13;1.90;;;;;;;;;;5037762;28;20207;-53
2022/09/03 14:06:06;;;;;;;3.90;2.03;;;;;;;;;;5036786;28;20296;-53
2022/09/03 14:08:35;;;;;;;3.67;1.98;;;;;;;;;;5032471;28;20215;-52
2022/09/03 14:11:29;;;;;;;2.30;1.90;;;;;;;;;;5036920;28;20223;-54
2022/09/03 14:14:12;;;;;;;2.47;2.17;;;;;;;;;;5043667;28;20688;-53
2022/09/03 14:16:53;;;;;;;4.90;1.88;;;;;;;;;;5036344;28;20212;-56
2022/09/03 14:19:31;;;;;;;4.30;2.30;;;;;;;;;;5041119;28;20195;-54
2022/09/03 14:22:42;;;;;;;1.98;1.83;;;;;;;;;;5039154;28;20203;-53
2022/09/03 14:25:15;;;;;;;1.80;1.70;;;;;;;;;;5018288;28;24489;-56
2022/09/03 14:27:41;;;;;;;3.70;2.10;;;;;;;;;;5039279;28;20276;-55
2022/09/03 14:30:40;;;;;;;2.08;1.85;;;;;;;;;;5039452;28;20218;-53
2022/09/03 14:33:18;;;;;;;2.83;1.95;;;;;;;;;;5043382;28;20199;-53
2022/09/03 14:35:53;;;;;;;3.75;2.00;;;;;;;;;;5046353;28;20678;-52
2022/09/03 14:38:57;;;;;;;2.10;1.88;;;;;;;;;;5044343;28;20237;-55
2022/09/03 14:41:45;;;;;;;3.47;2.10;;;;;;;;;;5042072;28;20214;-51
2022/09/03 14:44:31;;;;;;;2.08;1.83;;;;;;;;;;5047291;28;20199;-54
2022/09/03 14:47:23;;;;;;;2.20;2.00;;;;;;;;;;5048666;28;20731;-54
2022/09/03 14:50:13;;;;;;;2.85;2.17;;;;;;;;;;5034414;28;20199;-54
2022/09/03 14:52:52;;;;;;;3.55;2.35;;;;;;;;;;5045429;28;20614;-53
2022/09/03 14:55:24;;;;;;;2.20;2.00;;;;;;;;;;5051981;28;20643;-53
2022/09/03 14:58:25;;;;;;;2.85;2.50;;;;;;;;;;5046418;28;20713;-54
2022/09/03 15:01:00;;;;;;;2.60;2.40;;;;;;;;;;5046659;28;20191;-53
2022/09/03 15:03:33;;;;;;;2.42;2.22;;;;;;;;;;5043028;28;20705;-53
2022/09/03 15:06:32;;;;;;;6.18;2.70;;;;;;;;;;5040021;28;20215;-53
2022/09/03 15:09:13;;;;;;;3.53;2.72;;;;;;;;;;5035981;28;20633;-51
2022/09/03 15:12:00;;;;;;;3.65;2.60;;;;;;;;;;5042173;28;20194;-50
2022/09/03 15:14:38;;;;;;;3.15;2.45;;;;;;;;;;5042287;28;20666;-53
2022/09/03 15:17:41;;;;;;;4.90;2.67;;;;;;;;;;5053334;28;20199;-52
2022/09/03 15:20:16;;;;;;;3.15;2.80;;;;;;;;;;5033625;28;20214;-53
2022/09/03 15:23:20;;;;;;;3.55;2.90;;;;;;;;;;5046890;28;20215;-52
2022/09/03 15:26:28;;;;;;;3.20;2.58;;;;;;;;;;5042363;28;20226;-52
2022/09/03 15:29:05;;;;;;;3.63;2.97;;;;;;;;;;5045394;28;20219;-51
2022/09/03 15:31:43;;;;;;;3.95;2.67;;;;;;;;;;5047500;28;20678;-52
2022/09/03 15:34:35;;;;;;;3.47;2.80;;;;;;;;;;5038503;28;20643;-54
2022/09/03 15:37:09;;;;;;;3.78;2.90;;;;;;;;;;5035906;28;20199;-52
2022/09/03 15:39:38;;;;;;;4.70;2.90;;;;;;;;;;5042333;28;20204;-52
2022/09/03 15:42:14;;;;;;;3.08;2.72;;;;;;;;;;5047440;28;20253;-54